createdAt,value
2019-03-03T00:00:41.575Z,60.80
2019-03-03T00:03:10.318Z,61.23
2019-03-03T00:05:39.085Z,61.31
2019-03-03T00:08:07.822Z,61.51
2019-03-03T00:10:36.603Z,61.60
2019-03-03T00:13:05.763Z,61.83
2019-03-03T00:15:34.573Z,61.58
2019-03-03T00:18:03.643Z,61.15
2019-03-03T00:20:32.659Z,61.20
2019-03-03T00:23:01.400Z,61.15
2019-03-03T00:25:30.166Z,61.56
2019-03-03T00:27:58.900Z,61.64
2019-03-03T00:30:27.783Z,61.65
2019-03-03T00:32:56.593Z,61.65
2019-03-03T00:35:25.364Z,61.37
2019-03-03T00:38:14.135Z,61.29
2019-03-03T00:41:00.640Z,61.07
2019-03-03T00:43:30.930Z,60.68
2019-03-03T00:46:13.378Z,60.79
2019-03-03T00:48:43.704Z,60.69
2019-03-03T00:51:29.260Z,60.62
2019-03-03T00:53:59.573Z,60.35
2019-03-03T00:56:29.945Z,60.46
2019-03-03T00:59:00.249Z,60.74
2019-03-03T01:01:30.558Z,60.64
2019-03-03T01:04:12.964Z,60.72
2019-03-03T01:06:46.030Z,60.98
2019-03-03T01:09:40.941Z,61.12
2019-03-03T01:12:14.338Z,60.51
2019-03-03T01:14:53.387Z,60.97
2019-03-03T01:17:26.469Z,60.62
2019-03-03T01:20:08.925Z,60.58
2019-03-03T01:22:39.248Z,60.84
2019-03-03T01:25:08.499Z,61.36
2019-03-03T01:27:37.364Z,61.21
2019-03-03T01:30:11.663Z,61.34
2019-03-03T01:32:40.408Z,61.78
2019-03-03T01:35:11.169Z,61.86
2019-03-03T01:37:39.949Z,61.39
2019-03-03T01:40:11.059Z,61.14
2019-03-03T01:42:39.801Z,61.05
2019-03-03T01:45:15.743Z,61.08
2019-03-03T01:47:44.489Z,61.18
2019-03-03T01:50:14.243Z,60.96
2019-03-03T01:52:43.462Z,61.04
2019-03-03T01:55:13.237Z,61.14
2019-03-03T01:57:41.964Z,61.13
2019-03-03T02:00:22.240Z,60.96
2019-03-03T02:02:50.978Z,61.88
2019-03-03T02:05:19.718Z,61.91
2019-03-03T02:07:48.494Z,61.74
2019-03-03T02:10:19.475Z,62.32
2019-03-03T02:12:48.238Z,62.13
2019-03-03T02:15:16.984Z,62.16
2019-03-03T02:17:46.039Z,61.99
2019-03-03T02:20:14.793Z,62.08
2019-03-03T02:22:43.864Z,62.28
2019-03-03T02:25:14.386Z,62.21
2019-03-03T02:27:43.444Z,62.21
2019-03-03T02:30:17.545Z,62.16
2019-03-03T02:32:46.380Z,61.96
2019-03-03T02:35:15.661Z,62.17
2019-03-03T02:37:44.404Z,62.32
2019-03-03T02:40:16.010Z,62.14
2019-03-03T02:42:44.798Z,62.90
2019-03-03T02:45:16.036Z,62.08
2019-03-03T02:47:44.772Z,61.65
2019-03-03T02:50:16.960Z,61.80
2019-03-03T02:52:45.899Z,61.86
2019-03-03T02:55:16.903Z,61.88
2019-03-03T02:57:45.634Z,61.87
2019-03-03T03:00:26.749Z,61.45
2019-03-03T03:03:00.098Z,61.59
2019-03-03T03:05:36.421Z,61.63
2019-03-03T03:08:06.737Z,61.55
2019-03-03T03:10:40.821Z,61.36
2019-03-03T03:13:17.093Z,61.40
2019-03-03T03:15:53.458Z,61.69
2019-03-03T03:18:26.761Z,61.91
2019-03-03T03:20:59.873Z,61.88
2019-03-03T03:23:30.187Z,61.96
2019-03-03T03:26:03.491Z,62.05
2019-03-03T03:28:36.766Z,62.23
2019-03-03T03:31:07.086Z,62.15
2019-03-03T03:33:37.643Z,62.03
2019-03-03T03:36:10.837Z,61.99
2019-03-03T03:38:57.654Z,61.60
2019-03-03T03:41:43.214Z,61.19
2019-03-03T03:44:19.485Z,60.97
2019-03-03T03:46:49.813Z,60.71
2019-03-03T03:49:26.138Z,60.77
2019-03-03T03:52:02.506Z,60.71
2019-03-03T03:54:47.845Z,60.42
2019-03-03T03:57:34.002Z,60.51
2019-03-03T04:00:07.391Z,60.74
2019-03-03T04:02:43.757Z,60.83
2019-03-03T04:05:29.005Z,61.15
2019-03-03T04:08:10.092Z,61.18
2019-03-03T04:10:40.419Z,61.09
2019-03-03T04:13:10.814Z,61.05
2019-03-03T04:15:46.558Z,61.11
2019-03-03T04:18:31.899Z,61.02
2019-03-03T04:21:08.175Z,61.16
2019-03-03T04:23:48.187Z,60.92
2019-03-03T04:26:27.939Z,61.21
2019-03-03T04:28:58.278Z,61.18
2019-03-03T04:31:28.590Z,60.96
2019-03-03T04:33:58.914Z,61.00
2019-03-03T04:36:29.224Z,60.94
2019-03-03T04:39:15.008Z,60.96
2019-03-03T04:41:45.328Z,61.02
2019-03-03T04:44:32.121Z,61.16
2019-03-03T04:47:08.805Z,60.97
2019-03-03T04:49:39.119Z,60.88
2019-03-03T04:52:12.458Z,61.01
2019-03-03T04:54:51.784Z,60.77
2019-03-03T04:57:37.645Z,60.61
2019-03-03T05:00:27.198Z,60.66
2019-03-03T05:03:13.959Z,60.91
2019-03-03T05:06:00.582Z,60.77
2019-03-03T05:08:30.919Z,60.74
2019-03-03T05:11:01.234Z,60.74
2019-03-03T05:13:31.595Z,60.44
2019-03-03T05:16:13.808Z,60.72
2019-03-03T05:18:44.165Z,60.87
2019-03-03T05:21:12.924Z,60.68
2019-03-03T05:23:41.660Z,60.42
2019-03-03T05:26:10.718Z,60.39
2019-03-03T05:28:39.459Z,60.25
2019-03-03T05:31:08.565Z,59.76
2019-03-03T05:33:37.299Z,60.05
2019-03-03T05:36:06.059Z,60.15
2019-03-03T05:38:34.810Z,60.39
2019-03-03T05:41:03.599Z,60.37
2019-03-03T05:43:32.334Z,60.62
2019-03-03T05:46:01.077Z,60.57
2019-03-03T05:48:30.073Z,60.64
2019-03-03T05:50:58.815Z,60.60
2019-03-03T05:53:29.243Z,60.58
2019-03-03T05:55:57.985Z,60.07
2019-03-03T05:58:28.500Z,60.35
2019-03-03T06:00:57.239Z,60.17
2019-03-03T06:03:26.003Z,60.19
2019-03-03T06:05:54.745Z,59.97
2019-03-03T06:08:23.503Z,60.12
2019-03-03T06:10:52.243Z,60.19
2019-03-03T06:13:21.604Z,60.30
2019-03-03T06:15:50.353Z,60.54
2019-03-03T06:18:19.143Z,60.41
2019-03-03T06:20:47.858Z,60.53
2019-03-03T06:23:16.658Z,60.33
2019-03-03T06:25:45.403Z,60.31
2019-03-03T06:28:14.144Z,60.65
2019-03-03T06:30:43.257Z,60.61
2019-03-03T06:33:11.973Z,60.71
2019-03-03T06:35:40.760Z,60.74
2019-03-03T06:38:09.499Z,61.13
2019-03-03T06:40:38.263Z,60.98
2019-03-03T06:43:06.994Z,61.05
2019-03-03T06:45:35.764Z,61.40
2019-03-03T06:48:04.847Z,61.15
2019-03-03T06:50:33.619Z,61.51
2019-03-03T06:53:02.360Z,61.51
2019-03-03T06:55:31.136Z,61.83
2019-03-03T06:57:59.879Z,61.76
2019-03-03T07:00:28.609Z,61.63
2019-03-03T07:02:58.653Z,61.75
2019-03-03T07:05:27.403Z,61.68
2019-03-03T07:08:00.544Z,62.28
2019-03-03T07:10:29.312Z,62.23
2019-03-03T07:12:58.187Z,62.48
2019-03-03T07:15:26.923Z,62.56
2019-03-03T07:17:55.694Z,62.82
2019-03-03T07:20:24.436Z,63.25
2019-03-03T07:22:53.493Z,63.49
2019-03-03T07:25:22.248Z,63.81
2019-03-03T07:27:52.360Z,64.23
2019-03-03T07:30:21.118Z,64.35
2019-03-03T07:32:54.790Z,64.22
2019-03-03T07:35:23.871Z,64.42
2019-03-03T07:37:55.496Z,64.50
2019-03-03T07:40:24.233Z,64.48
2019-03-03T07:42:53.003Z,64.49
2019-03-03T07:45:21.742Z,64.39
2019-03-03T07:47:50.500Z,64.47
2019-03-03T07:50:19.263Z,64.36
2019-03-03T07:52:48.349Z,64.20
2019-03-03T07:55:17.435Z,64.30
2019-03-03T07:57:46.925Z,64.24
2019-03-03T08:00:17.439Z,64.30
2019-03-03T08:02:46.179Z,64.17
2019-03-03T08:05:14.963Z,63.98
2019-03-03T08:07:43.704Z,63.52
2019-03-03T08:10:13.872Z,63.17
2019-03-03T08:12:42.628Z,63.11
2019-03-03T08:15:14.686Z,62.36
2019-03-03T08:17:43.446Z,62.48
2019-03-03T08:20:14.024Z,62.29
2019-03-03T08:22:42.770Z,61.94
2019-03-03T08:25:12.799Z,61.45
2019-03-03T08:27:42.115Z,60.95
2019-03-03T08:30:13.069Z,60.96
2019-03-03T08:32:41.864Z,60.82
2019-03-03T08:35:24.856Z,61.01
2019-03-03T08:37:53.619Z,60.74
2019-03-03T08:40:22.364Z,60.88
2019-03-03T08:42:55.453Z,60.91
2019-03-03T08:45:31.833Z,61.19
2019-03-03T08:48:02.174Z,60.23
2019-03-03T08:50:47.935Z,60.96
2019-03-03T08:53:30.830Z,60.66
2019-03-03T08:56:01.153Z,60.22
2019-03-03T08:58:34.243Z,60.80
2019-03-03T09:01:07.269Z,60.31
2019-03-03T09:03:40.610Z,60.18
2019-03-03T09:06:23.178Z,60.14
2019-03-03T09:08:59.570Z,59.05
2019-03-03T09:11:38.943Z,59.39
2019-03-03T09:14:12.052Z,58.30
2019-03-03T09:16:51.435Z,58.64
2019-03-03T09:19:21.794Z,57.66
2019-03-03T09:22:04.739Z,57.60
2019-03-03T09:24:47.266Z,56.86
2019-03-03T09:27:34.085Z,55.45
2019-03-03T09:30:21.089Z,52.79
2019-03-03T09:33:07.666Z,53.74
2019-03-03T09:35:44.376Z,54.30
2019-03-03T09:38:14.629Z,55.12
2019-03-03T09:40:44.978Z,53.78
2019-03-03T09:43:21.280Z,55.46
2019-03-03T09:46:06.758Z,54.50
2019-03-03T09:48:54.077Z,54.28
2019-03-03T09:51:41.091Z,54.41
2019-03-03T09:54:20.442Z,54.18
2019-03-03T09:56:50.786Z,53.64
2019-03-03T09:59:21.280Z,53.12
2019-03-03T10:02:03.951Z,50.93
2019-03-03T10:04:34.624Z,51.13
2019-03-03T10:07:17.973Z,49.87
2019-03-03T10:10:03.646Z,50.70
2019-03-03T10:12:40.264Z,49.74
2019-03-03T10:15:29.563Z,49.98
2019-03-03T10:18:16.287Z,48.40
2019-03-03T10:20:46.611Z,47.72
2019-03-03T10:23:16.963Z,48.15
2019-03-03T10:25:56.759Z,49.61
2019-03-03T10:28:27.109Z,49.08
2019-03-03T10:31:08.525Z,50.51
2019-03-03T10:33:44.916Z,51.54
2019-03-03T10:36:33.981Z,52.14
2019-03-03T10:39:13.396Z,53.82
2019-03-03T10:41:44.979Z,53.69
2019-03-03T10:44:15.340Z,53.76
2019-03-03T10:47:03.903Z,53.56
2019-03-03T10:49:37.158Z,53.27
2019-03-03T10:52:07.663Z,52.45
2019-03-03T10:54:40.768Z,49.80
2019-03-03T10:57:20.297Z,49.04
2019-03-03T11:00:05.690Z,49.32
2019-03-03T11:02:47.918Z,48.39
2019-03-03T11:05:21.253Z,49.29
2019-03-03T11:08:06.960Z,47.97
2019-03-03T11:10:43.824Z,47.15
2019-03-03T11:13:20.130Z,47.35
2019-03-03T11:16:02.790Z,47.47
2019-03-03T11:18:41.970Z,47.39
2019-03-03T11:21:12.324Z,46.40
2019-03-03T11:23:48.480Z,46.35
2019-03-03T11:26:21.941Z,46.93
2019-03-03T11:28:58.504Z,47.40
2019-03-03T11:31:47.569Z,47.80
2019-03-03T11:34:24.288Z,47.07
2019-03-03T11:36:57.340Z,45.78
2019-03-03T11:39:39.757Z,45.89
2019-03-03T11:42:16.052Z,45.75
2019-03-03T11:45:01.519Z,45.02
2019-03-03T11:47:47.249Z,44.69
2019-03-03T11:50:20.454Z,45.13
2019-03-03T11:52:59.838Z,45.04
2019-03-03T11:55:30.159Z,45.94
2019-03-03T11:58:13.099Z,45.62
2019-03-03T12:00:58.545Z,45.75
2019-03-03T12:03:44.024Z,46.44
2019-03-03T12:06:17.455Z,47.30
2019-03-03T12:08:56.954Z,47.38
2019-03-03T12:11:27.272Z,47.45
2019-03-03T12:14:00.996Z,47.37
2019-03-03T12:16:46.543Z,46.68
2019-03-03T12:19:33.150Z,46.78
2019-03-03T12:22:03.475Z,45.92
2019-03-03T12:24:42.692Z,45.52
2019-03-03T12:27:16.452Z,44.98
2019-03-03T12:29:46.775Z,44.23
2019-03-03T12:32:17.190Z,44.47
2019-03-03T12:34:56.678Z,44.22
2019-03-03T12:37:36.000Z,45.41
2019-03-03T12:40:11.711Z,45.06
2019-03-03T12:43:00.220Z,45.57
2019-03-03T12:45:31.060Z,45.44
2019-03-03T12:48:01.411Z,45.81
2019-03-03T12:50:40.923Z,46.51
2019-03-03T12:53:27.418Z,46.18
2019-03-03T12:56:09.749Z,47.30
2019-03-03T12:58:48.920Z,48.09
2019-03-03T13:01:23.740Z,47.56
2019-03-03T13:04:06.569Z,47.20
2019-03-03T13:06:37.020Z,46.68
2019-03-03T13:09:10.979Z,46.82
2019-03-03T13:11:47.777Z,46.98
2019-03-03T13:14:24.358Z,45.57
2019-03-03T13:16:56.056Z,46.44
2019-03-03T13:19:26.680Z,45.95
2019-03-03T13:22:05.758Z,45.18
2019-03-03T13:24:36.078Z,45.49
2019-03-03T13:27:13.057Z,45.95
2019-03-03T13:30:02.160Z,45.69
2019-03-03T13:32:32.519Z,45.69
2019-03-03T13:35:05.480Z,46.53
2019-03-03T13:37:39.393Z,46.11
2019-03-03T13:40:13.863Z,45.68
2019-03-03T13:42:44.219Z,46.63
2019-03-03T13:45:13.958Z,47.59
2019-03-03T13:47:42.860Z,45.76
2019-03-03T13:50:14.918Z,47.10
2019-03-03T13:52:44.702Z,46.73
2019-03-03T13:55:15.060Z,47.43
2019-03-03T13:57:43.941Z,46.46
2019-03-03T14:00:22.000Z,46.64
2019-03-03T14:02:53.253Z,46.63
2019-03-03T14:05:23.541Z,46.32
2019-03-03T14:07:52.740Z,47.19
2019-03-03T14:10:21.778Z,47.63
2019-03-03T14:12:51.058Z,47.08
2019-03-03T14:15:20.599Z,47.43
2019-03-03T14:17:49.517Z,46.81
2019-03-03T14:20:23.185Z,46.59
2019-03-03T14:22:53.682Z,47.33
2019-03-03T14:25:23.158Z,46.64
2019-03-03T14:27:52.038Z,46.28
2019-03-03T14:30:23.491Z,46.64
2019-03-03T14:32:52.297Z,47.55
2019-03-03T14:35:22.597Z,47.23
2019-03-03T14:37:57.740Z,47.01
2019-03-03T14:40:26.659Z,47.34
2019-03-03T14:42:55.697Z,46.82
2019-03-03T14:45:28.159Z,47.60
2019-03-03T14:47:57.797Z,47.28
2019-03-03T14:50:26.577Z,46.70
2019-03-03T14:52:57.426Z,47.12
2019-03-03T14:55:26.618Z,47.61
2019-03-03T14:57:55.378Z,47.53
2019-03-03T15:00:30.458Z,48.08
2019-03-03T15:03:03.827Z,48.48
2019-03-03T15:05:33.920Z,47.87
2019-03-03T15:08:03.966Z,48.28
2019-03-03T15:10:32.762Z,47.71
2019-03-03T15:13:04.158Z,47.75
2019-03-03T15:15:38.060Z,47.97
2019-03-03T15:18:06.454Z,47.67
2019-03-03T15:20:35.717Z,47.84
2019-03-03T15:23:04.778Z,48.27
2019-03-03T15:25:34.837Z,47.92
2019-03-03T15:28:03.818Z,48.13
2019-03-03T15:30:32.678Z,48.24
2019-03-03T15:33:01.458Z,48.40
2019-03-03T15:35:32.019Z,48.31
2019-03-03T15:38:00.997Z,48.60
2019-03-03T15:40:30.660Z,48.92
2019-03-03T15:42:59.540Z,49.05
2019-03-03T15:45:29.886Z,49.24
2019-03-03T15:47:58.741Z,49.40
2019-03-03T15:50:27.857Z,49.12
2019-03-03T15:52:56.858Z,49.71
2019-03-03T15:55:27.802Z,49.23
2019-03-03T15:57:56.589Z,49.70
2019-03-03T16:00:36.760Z,49.32
2019-03-03T16:03:06.457Z,49.60
2019-03-03T16:05:35.319Z,50.36
2019-03-03T16:08:05.458Z,50.91
2019-03-03T16:10:34.238Z,51.31
2019-03-03T16:13:05.139Z,51.83
2019-03-03T16:15:34.059Z,51.23
2019-03-03T16:18:04.959Z,51.60
2019-03-03T16:20:34.023Z,51.56
2019-03-03T16:23:02.798Z,51.75
2019-03-03T16:25:31.698Z,51.69
2019-03-03T16:28:00.560Z,51.66
2019-03-03T16:30:29.438Z,51.90
2019-03-03T16:32:58.798Z,52.30
2019-03-03T16:35:30.279Z,52.09
2019-03-03T16:37:59.397Z,51.74
2019-03-03T16:40:28.481Z,51.97
2019-03-03T16:42:57.237Z,51.91
2019-03-03T16:45:26.183Z,52.06
2019-03-03T16:47:55.077Z,51.73
2019-03-03T16:50:24.917Z,51.71
2019-03-03T16:52:53.797Z,52.15
2019-03-03T16:55:25.038Z,51.91
2019-03-03T16:57:56.779Z,51.73
2019-03-03T17:00:29.538Z,52.07
2019-03-03T17:02:58.437Z,51.76
2019-03-03T17:05:29.562Z,51.63
2019-03-03T17:07:58.389Z,51.28
2019-03-03T17:10:27.301Z,51.27
2019-03-03T17:12:56.073Z,51.64
2019-03-03T17:15:26.550Z,50.99
2019-03-03T17:17:55.375Z,51.38
2019-03-03T17:20:24.218Z,50.83
2019-03-03T17:22:52.977Z,50.78
2019-03-03T17:25:27.418Z,50.47
2019-03-03T17:27:56.271Z,50.49
2019-03-03T17:30:26.538Z,50.37
2019-03-03T17:32:55.384Z,50.19
2019-03-03T17:35:24.357Z,50.28
2019-03-03T17:37:53.618Z,50.55
2019-03-03T17:40:24.839Z,50.93
2019-03-03T17:42:53.879Z,50.71
2019-03-03T17:45:23.959Z,50.52
2019-03-03T17:47:53.140Z,50.51
2019-03-03T17:50:26.708Z,50.62
2019-03-03T17:52:56.088Z,50.77
2019-03-03T17:55:24.877Z,50.66
2019-03-03T17:57:54.638Z,50.45
2019-03-03T18:00:29.181Z,50.51
2019-03-03T18:02:58.658Z,50.32
2019-03-03T18:05:27.678Z,50.46
2019-03-03T18:07:56.859Z,50.15
2019-03-03T18:10:25.997Z,50.65
2019-03-03T18:12:54.799Z,50.57
2019-03-03T18:15:23.671Z,50.70
2019-03-03T18:17:52.638Z,50.52
2019-03-03T18:20:22.678Z,50.71
2019-03-03T18:22:51.478Z,50.60
2019-03-03T18:25:23.578Z,50.83
2019-03-03T18:27:52.600Z,50.78
2019-03-03T18:30:26.198Z,50.32
2019-03-03T18:32:55.421Z,50.59
2019-03-03T18:35:24.801Z,50.37
2019-03-03T18:37:54.318Z,50.23
2019-03-03T18:40:27.181Z,50.23
2019-03-03T18:42:56.398Z,50.25
2019-03-03T18:45:25.798Z,50.57
2019-03-03T18:47:56.238Z,50.78
2019-03-03T18:50:26.657Z,50.55
2019-03-03T18:52:56.642Z,50.79
2019-03-03T18:55:26.822Z,50.68
2019-03-03T18:57:55.680Z,50.32
2019-03-03T19:00:32.321Z,50.54
2019-03-03T19:03:02.162Z,50.37
2019-03-03T19:05:34.398Z,50.86
2019-03-03T19:08:03.498Z,50.56
2019-03-03T19:10:37.910Z,49.93
2019-03-03T19:13:06.838Z,50.38
2019-03-03T19:15:35.998Z,50.69
2019-03-03T19:18:05.407Z,51.04
2019-03-03T19:20:34.211Z,51.31
2019-03-03T19:23:03.018Z,51.59
2019-03-03T19:25:31.818Z,51.29
2019-03-03T19:28:00.639Z,51.12
2019-03-03T19:30:31.006Z,51.51
2019-03-03T19:33:12.067Z,51.65
2019-03-03T19:35:41.459Z,51.65
2019-03-03T19:38:10.660Z,51.59
2019-03-03T19:40:39.579Z,50.86
2019-03-03T19:43:08.879Z,51.13
2019-03-03T19:45:46.962Z,51.02
2019-03-03T19:48:16.058Z,51.01
2019-03-03T19:50:45.738Z,50.94
2019-03-03T19:53:15.018Z,51.40
2019-03-03T19:55:44.950Z,51.76
2019-03-03T19:58:13.858Z,51.75
2019-03-03T20:00:43.951Z,52.17
2019-03-03T20:03:13.639Z,52.51
2019-03-03T20:05:42.702Z,53.05
2019-03-03T20:08:13.130Z,52.94
2019-03-03T20:10:42.458Z,53.18
2019-03-03T20:13:11.678Z,52.85
2019-03-03T20:15:40.478Z,52.59
2019-03-03T20:18:10.657Z,52.36
2019-03-03T20:20:40.059Z,52.46
2019-03-03T20:23:09.338Z,52.57
2019-03-03T20:25:47.498Z,52.38
2019-03-03T20:28:16.397Z,52.25
2019-03-03T20:30:45.838Z,51.99
2019-03-03T20:33:14.879Z,51.38
2019-03-03T20:35:43.618Z,51.21
2019-03-03T20:38:12.439Z,51.76
2019-03-03T20:40:41.188Z,51.84
2019-03-03T20:43:10.018Z,52.55
2019-03-03T20:45:38.983Z,52.34
2019-03-03T20:48:07.844Z,52.50
2019-03-03T20:50:36.731Z,52.09
2019-03-03T20:53:05.465Z,52.19
2019-03-03T20:55:34.358Z,52.36
2019-03-03T20:58:03.099Z,52.32
2019-03-03T21:00:33.178Z,52.28
2019-03-03T21:03:03.397Z,52.30
2019-03-03T21:05:32.269Z,52.23
2019-03-03T21:08:01.019Z,52.54
2019-03-03T21:10:31.192Z,52.55
2019-03-03T21:12:59.991Z,52.42
2019-03-03T21:15:29.219Z,52.07
2019-03-03T21:17:58.039Z,51.82
2019-03-03T21:20:26.818Z,51.82
2019-03-03T21:22:55.762Z,52.12
2019-03-03T21:25:24.519Z,51.66
2019-03-03T21:27:53.301Z,51.51
2019-03-03T21:30:27.219Z,51.53
2019-03-03T21:32:55.419Z,51.42
2019-03-03T21:35:24.263Z,51.00
2019-03-03T21:37:53.163Z,51.45
2019-03-03T21:40:26.781Z,51.48
2019-03-03T21:42:55.608Z,51.54
2019-03-03T21:45:31.859Z,51.81
2019-03-03T21:48:00.699Z,52.12
2019-03-03T21:50:30.818Z,52.08
2019-03-03T21:52:59.700Z,51.78
2019-03-03T21:55:28.746Z,51.96
2019-03-03T21:57:57.518Z,52.12
2019-03-03T22:00:34.707Z,52.38
2019-03-03T22:03:03.486Z,51.87
2019-03-03T22:05:32.258Z,52.27
2019-03-03T22:08:01.039Z,52.31
2019-03-03T22:10:30.183Z,52.10
2019-03-03T22:13:04.480Z,51.36
2019-03-03T22:15:33.661Z,51.18
2019-03-03T22:18:02.739Z,51.50
2019-03-03T22:20:31.460Z,51.69
2019-03-03T22:23:01.623Z,51.59
2019-03-03T22:25:30.679Z,51.73
2019-03-03T22:27:59.458Z,51.53
2019-03-03T22:30:28.218Z,51.19
2019-03-03T22:32:56.981Z,51.63
2019-03-03T22:35:25.758Z,51.23
2019-03-03T22:37:54.550Z,51.25
2019-03-03T22:40:24.860Z,51.33
2019-03-03T22:42:53.638Z,51.06
2019-03-03T22:45:23.717Z,51.22
2019-03-03T22:47:52.433Z,51.40
2019-03-03T22:50:22.340Z,51.27
2019-03-03T22:52:51.480Z,51.25
2019-03-03T22:55:21.577Z,51.57
2019-03-03T22:57:50.370Z,51.41
2019-03-03T23:00:44.700Z,51.07
2019-03-03T23:03:16.339Z,51.49
2019-03-03T23:06:09.059Z,51.28
2019-03-03T23:09:04.998Z,51.24
2019-03-03T23:11:42.298Z,51.34
2019-03-03T23:14:38.458Z,51.76
2019-03-03T23:17:22.265Z,51.55
2019-03-03T23:20:08.819Z,51.98
2019-03-03T23:22:55.561Z,51.73
2019-03-03T23:25:48.240Z,51.64
2019-03-03T23:28:17.318Z,51.90
2019-03-03T23:30:48.606Z,51.85
2019-03-03T23:33:20.219Z,51.79
2019-03-03T23:35:48.979Z,51.72
2019-03-03T23:38:17.703Z,51.60
2019-03-03T23:40:46.760Z,51.96
2019-03-03T23:43:15.518Z,52.23
2019-03-03T23:45:44.599Z,52.25
2019-03-03T23:48:13.360Z,52.21
2019-03-03T23:50:42.137Z,52.03
2019-03-03T23:53:10.858Z,51.82
2019-03-03T23:55:39.638Z,51.76
2019-03-03T23:58:08.418Z,51.43
